createdAt,value
2018-12-30T00:00:23.155Z,89.63
2018-12-30T00:02:52.787Z,89.66
2018-12-30T00:05:24.241Z,89.62
2018-12-30T00:07:54.018Z,89.68
2018-12-30T00:10:23.690Z,89.68
2018-12-30T00:12:53.576Z,89.66
2018-12-30T00:15:25.024Z,89.63
2018-12-30T00:18:13.768Z,89.59
2018-12-30T00:20:43.452Z,89.63
2018-12-30T00:23:13.109Z,89.75
2018-12-30T00:25:43.009Z,89.71
2018-12-30T00:28:12.703Z,89.76
2018-12-30T00:30:42.343Z,89.73
2018-12-30T00:33:12.106Z,89.76
2018-12-30T00:35:41.819Z,89.68
2018-12-30T00:38:11.477Z,89.68
2018-12-30T00:40:41.371Z,89.71
2018-12-30T00:43:11.080Z,89.74
2018-12-30T00:45:59.732Z,89.70
2018-12-30T00:48:41.003Z,89.71
2018-12-30T00:51:16.948Z,89.70
2018-12-30T00:53:42.753Z,89.66
2018-12-30T00:56:12.703Z,89.66
2018-12-30T00:58:42.363Z,89.74
2018-12-30T01:01:12.084Z,89.72
2018-12-30T01:03:41.914Z,89.75
2018-12-30T01:06:11.565Z,89.78
2018-12-30T01:09:00.306Z,89.84
2018-12-30T01:11:48.840Z,89.79
2018-12-30T01:14:18.751Z,89.78
2018-12-30T01:16:50.128Z,89.75
2018-12-30T01:19:20.142Z,89.72
2018-12-30T01:21:49.823Z,89.74
2018-12-30T01:24:19.460Z,89.75
2018-12-30T01:26:49.225Z,89.75
2018-12-30T01:29:20.658Z,89.70
2018-12-30T01:31:50.614Z,89.66
2018-12-30T01:34:20.432Z,89.71
2018-12-30T01:36:50.106Z,89.65
2018-12-30T01:39:19.951Z,89.57
2018-12-30T01:41:51.743Z,89.56
2018-12-30T01:46:56.972Z,89.62
2018-12-30T01:49:27.288Z,89.61
2018-12-30T01:51:58.794Z,89.57
2018-12-30T01:54:28.453Z,89.59
2018-12-30T01:56:58.135Z,89.59
2018-12-30T01:59:46.767Z,89.63
2018-12-30T02:02:16.471Z,89.67
2018-12-30T02:05:05.153Z,89.59
2018-12-30T02:07:34.903Z,89.56
2018-12-30T02:10:06.706Z,89.61
2018-12-30T02:12:36.342Z,89.63
2018-12-30T02:15:06.164Z,89.62
2018-12-30T02:17:35.991Z,89.60
2018-12-30T02:20:06.486Z,89.61
2018-12-30T02:22:36.197Z,89.63
2018-12-30T02:25:06.222Z,89.68
2018-12-30T02:30:24.789Z,89.64
2018-12-30T02:32:54.462Z,89.64
2018-12-30T02:35:43.311Z,89.69
2018-12-30T02:38:12.934Z,89.69
2018-12-30T02:40:42.597Z,89.72
2018-12-30T02:43:12.600Z,89.70
2018-12-30T02:45:42.239Z,89.70
2018-12-30T02:48:11.885Z,89.75
2018-12-30T02:50:43.901Z,89.77
2018-12-30T02:53:13.528Z,89.76
2018-12-30T02:55:43.201Z,89.82
2018-12-30T02:58:13.277Z,89.79
2018-12-30T03:00:42.905Z,89.78
2018-12-30T03:03:12.537Z,89.73
2018-12-30T03:05:42.639Z,89.68
2018-12-30T03:08:31.311Z,89.69
2018-12-30T03:11:01.616Z,89.63
2018-12-30T03:13:31.250Z,89.56
2018-12-30T03:16:00.926Z,89.51
2018-12-30T03:18:30.956Z,89.47
2018-12-30T03:21:00.774Z,89.45
2018-12-30T03:23:30.415Z,89.47
2018-12-30T03:26:00.159Z,89.47
2018-12-30T03:28:29.815Z,89.46
2018-12-30T03:30:59.452Z,89.50
2018-12-30T03:33:29.305Z,89.54
2018-12-30T03:35:59.210Z,89.56
2018-12-30T03:38:28.853Z,89.53
2018-12-30T03:41:01.747Z,89.48
2018-12-30T03:43:31.416Z,89.50
2018-12-30T03:46:01.381Z,89.49
2018-12-30T03:48:31.080Z,89.49
2018-12-30T03:51:01.133Z,89.50
2018-12-30T03:53:31.079Z,89.49
2018-12-30T03:56:00.760Z,89.44
2018-12-30T03:58:30.394Z,89.48
2018-12-30T04:01:00.149Z,89.44
2018-12-30T04:03:29.845Z,89.45
2018-12-30T04:05:59.828Z,89.39
2018-12-30T04:08:29.756Z,89.43
2018-12-30T04:10:59.534Z,89.40
2018-12-30T04:13:29.188Z,89.38
2018-12-30T04:16:17.950Z,89.36
2018-12-30T04:18:47.600Z,89.34
2018-12-30T04:21:17.413Z,89.20
2018-12-30T04:23:47.583Z,89.28
2018-12-30T04:26:17.262Z,89.32
2018-12-30T04:28:46.969Z,89.30
2018-12-30T04:31:17.141Z,89.25
2018-12-30T04:33:46.822Z,89.23
2018-12-30T04:39:44.711Z,89.12
2018-12-30T04:42:14.375Z,89.10
2018-12-30T04:44:44.042Z,89.01
2018-12-30T04:47:13.831Z,88.99
2018-12-30T04:49:43.550Z,88.96
2018-12-30T04:52:13.221Z,88.98
2018-12-30T04:54:42.997Z,88.92
2018-12-30T04:57:12.694Z,88.95
2018-12-30T04:59:42.338Z,88.91
2018-12-30T05:02:12.160Z,88.92
2018-12-30T05:04:41.806Z,88.92
2018-12-30T05:07:11.721Z,88.90
2018-12-30T05:09:41.734Z,88.89
2018-12-30T05:12:11.385Z,88.87
2018-12-30T05:14:41.063Z,88.83
2018-12-30T05:17:10.859Z,88.85
2018-12-30T05:19:40.613Z,88.87
2018-12-30T05:22:10.465Z,88.82
2018-12-30T05:24:41.879Z,88.83
2018-12-30T05:27:22.920Z,88.84
2018-12-30T05:29:52.666Z,88.87
2018-12-30T05:32:22.325Z,88.89
2018-12-30T05:34:52.069Z,88.86
2018-12-30T05:37:21.843Z,88.81
2018-12-30T05:39:51.488Z,88.79
2018-12-30T05:42:21.139Z,88.74
2018-12-30T05:44:50.904Z,88.69
2018-12-30T05:47:20.528Z,88.66
2018-12-30T05:49:50.207Z,88.63
2018-12-30T05:52:20.284Z,88.62
2018-12-30T05:54:49.923Z,88.57
2018-12-30T05:57:19.567Z,88.54
2018-12-30T05:59:49.531Z,88.49
2018-12-30T06:02:19.168Z,88.50
2018-12-30T06:04:48.790Z,88.45
2018-12-30T06:07:18.580Z,88.42
2018-12-30T06:09:48.228Z,88.39
2018-12-30T06:12:17.866Z,88.39
2018-12-30T06:14:47.785Z,88.37
2018-12-30T06:17:17.423Z,88.33
2018-12-30T06:19:47.104Z,88.27
2018-12-30T06:22:16.847Z,88.20
2018-12-30T06:24:46.735Z,88.17
2018-12-30T06:27:16.380Z,88.08
2018-12-30T06:29:46.302Z,88.07
2018-12-30T06:32:15.955Z,88.01
2018-12-30T06:34:45.616Z,87.96
2018-12-30T06:37:15.505Z,87.95
2018-12-30T06:39:45.222Z,87.93
2018-12-30T06:42:14.861Z,87.97
2018-12-30T06:44:44.914Z,88.00
2018-12-30T06:47:14.564Z,87.98
2018-12-30T06:49:44.157Z,87.93
2018-12-30T06:52:13.912Z,87.91
2018-12-30T06:54:43.541Z,87.89
2018-12-30T06:57:13.176Z,87.95
2018-12-30T06:59:43.011Z,87.97
2018-12-30T07:02:31.610Z,87.96
2018-12-30T07:05:20.334Z,88.01
2018-12-30T07:07:50.023Z,88.00
2018-12-30T07:10:20.057Z,88.02
2018-12-30T07:12:49.965Z,88.07
2018-12-30T07:15:19.626Z,88.10
2018-12-30T07:17:49.335Z,88.11
2018-12-30T07:20:19.115Z,88.16
2018-12-30T07:22:48.827Z,88.17
2018-12-30T07:25:18.635Z,88.21
2018-12-30T07:27:48.715Z,88.24
2018-12-30T07:30:18.443Z,88.28
2018-12-30T07:33:07.147Z,88.28
2018-12-30T07:35:44.056Z,88.28
2018-12-30T07:38:14.044Z,88.30
2018-12-30T07:40:43.876Z,88.28
2018-12-30T07:43:13.519Z,88.29
2018-12-30T07:45:43.478Z,88.28
2018-12-30T07:48:13.284Z,88.28
2018-12-30T07:50:42.935Z,88.33
2018-12-30T07:53:31.756Z,88.33
2018-12-30T07:56:01.410Z,88.30
2018-12-30T07:58:31.044Z,88.30
2018-12-30T08:01:00.823Z,88.25
2018-12-30T08:03:30.493Z,88.24
2018-12-30T08:06:00.143Z,88.24
2018-12-30T08:08:29.901Z,88.25
2018-12-30T08:10:59.716Z,88.25
2018-12-30T08:13:29.368Z,88.26
2018-12-30T08:15:59.118Z,88.26
2018-12-30T08:18:28.743Z,88.25
2018-12-30T08:20:58.353Z,88.27
2018-12-30T08:23:28.269Z,88.26
2018-12-30T08:25:58.498Z,88.23
2018-12-30T08:28:28.131Z,88.29
2018-12-30T08:30:58.001Z,88.21
2018-12-30T08:33:27.832Z,88.17
2018-12-30T08:35:57.433Z,88.17
2018-12-30T08:38:27.109Z,88.08
2018-12-30T08:40:57.164Z,88.04
2018-12-30T08:43:26.903Z,88.02
2018-12-30T08:45:57.147Z,87.96
2018-12-30T08:51:15.430Z,87.90
2018-12-30T08:53:45.101Z,87.78
2018-12-30T08:56:14.831Z,87.65
2018-12-30T08:58:44.677Z,87.60
2018-12-30T09:01:14.310Z,87.54
2018-12-30T09:03:43.979Z,87.59
2018-12-30T09:06:14.114Z,87.57
2018-12-30T09:08:43.820Z,87.55
2018-12-30T09:11:13.533Z,87.50
2018-12-30T09:13:43.450Z,87.39
2018-12-30T09:16:13.090Z,87.32
2018-12-30T09:18:42.751Z,87.28
2018-12-30T09:21:12.631Z,87.27
2018-12-30T09:23:42.253Z,87.39
2018-12-30T09:26:12.061Z,87.42
2018-12-30T09:29:00.771Z,87.31
2018-12-30T09:31:30.505Z,87.24
2018-12-30T09:34:00.248Z,87.01
2018-12-30T09:36:30.141Z,86.95
2018-12-30T09:38:59.805Z,86.82
2018-12-30T09:41:29.704Z,86.69
2018-12-30T09:43:59.729Z,86.57
2018-12-30T09:46:29.422Z,86.53
2018-12-30T09:48:59.133Z,86.64
2018-12-30T09:51:28.935Z,86.59
2018-12-30T09:53:58.554Z,86.51
2018-12-30T09:56:28.566Z,86.43
2018-12-30T09:58:58.495Z,86.41
2018-12-30T10:01:28.142Z,86.40
2018-12-30T10:03:58.420Z,86.39
2018-12-30T10:06:28.183Z,86.46
2018-12-30T10:08:57.873Z,86.47
2018-12-30T10:11:27.769Z,86.53
2018-12-30T10:13:57.841Z,86.58
2018-12-30T10:16:27.638Z,86.63
2018-12-30T10:18:57.335Z,86.62
2018-12-30T10:21:27.315Z,86.59
2018-12-30T10:23:57.023Z,86.55
2018-12-30T10:26:26.694Z,86.59
2018-12-30T10:28:56.674Z,86.57
2018-12-30T10:31:26.307Z,86.56
2018-12-30T10:33:56.094Z,86.56
2018-12-30T10:36:26.034Z,86.67
2018-12-30T10:38:55.687Z,86.64
2018-12-30T10:41:25.353Z,86.66
2018-12-30T10:43:55.162Z,86.63
2018-12-30T10:46:27.622Z,86.60
2018-12-30T10:48:57.514Z,86.57
2018-12-30T10:51:27.211Z,86.57
2018-12-30T10:54:00.662Z,86.56
2018-12-30T10:56:28.484Z,86.57
2018-12-30T11:01:38.419Z,86.56
2018-12-30T11:04:08.228Z,86.41
2018-12-30T11:06:38.095Z,86.36
2018-12-30T11:09:08.899Z,86.23
2018-12-30T11:11:38.873Z,86.21
2018-12-30T11:14:08.510Z,86.15
2018-12-30T11:16:52.802Z,86.09
2018-12-30T11:19:09.929Z,86.03
2018-12-30T11:21:39.636Z,86.04
2018-12-30T11:24:09.318Z,86.02
2018-12-30T11:26:38.986Z,85.91
2018-12-30T11:29:08.717Z,85.92
2018-12-30T11:31:38.396Z,85.86
2018-12-30T11:34:08.206Z,85.86
2018-12-30T11:36:38.005Z,85.80
2018-12-30T11:39:08.573Z,85.62
2018-12-30T11:41:38.299Z,85.55
2018-12-30T11:44:08.099Z,85.48
2018-12-30T11:46:37.790Z,85.32
2018-12-30T11:49:07.419Z,85.19
2018-12-30T11:51:37.273Z,85.13
2018-12-30T11:54:07.020Z,84.99
2018-12-30T11:56:36.667Z,85.04
2018-12-30T12:01:55.110Z,84.84
2018-12-30T12:04:24.742Z,84.82
2018-12-30T12:06:54.619Z,84.76
2018-12-30T12:09:24.460Z,84.59
2018-12-30T12:11:54.421Z,84.40
2018-12-30T12:14:24.050Z,84.29
2018-12-30T12:16:53.888Z,84.20
2018-12-30T12:19:23.511Z,84.08
2018-12-30T12:21:53.145Z,84.01
2018-12-30T12:24:24.493Z,83.95
2018-12-30T12:26:54.358Z,83.92
2018-12-30T12:29:24.190Z,83.83
2018-12-30T12:31:53.882Z,83.81
2018-12-30T12:34:23.535Z,83.76
2018-12-30T12:36:53.411Z,83.72
2018-12-30T12:39:23.309Z,83.63
2018-12-30T12:41:52.932Z,83.59
2018-12-30T12:44:23.146Z,83.55
2018-12-30T12:46:52.799Z,83.56
2018-12-30T12:49:22.978Z,83.51
2018-12-30T12:51:53.612Z,83.47
2018-12-30T12:54:23.286Z,83.46
2018-12-30T12:56:52.930Z,83.41
2018-12-30T12:59:23.046Z,83.38
2018-12-30T13:01:53.065Z,83.32
2018-12-30T13:04:22.932Z,83.25
2018-12-30T13:06:52.783Z,83.18
2018-12-30T13:09:22.712Z,83.17
2018-12-30T13:11:52.503Z,83.08
2018-12-30T13:14:22.289Z,82.98
2018-12-30T13:16:52.035Z,82.90
2018-12-30T13:19:21.656Z,82.88
2018-12-30T13:21:51.293Z,82.91
2018-12-30T13:24:20.997Z,82.93
2018-12-30T13:26:50.892Z,82.93
2018-12-30T13:29:20.589Z,82.95
2018-12-30T13:31:50.263Z,82.95
2018-12-30T13:34:19.942Z,83.00
2018-12-30T13:36:49.559Z,83.07
2018-12-30T13:39:19.384Z,83.17
2018-12-30T13:41:49.134Z,83.24
2018-12-30T13:44:18.820Z,83.29
2018-12-30T13:46:48.449Z,83.33
2018-12-30T13:49:36.958Z,83.45
2018-12-30T13:52:06.623Z,83.58
2018-12-30T13:54:36.270Z,83.67
2018-12-30T13:57:05.965Z,83.74
2018-12-30T13:59:35.839Z,83.75
2018-12-30T14:02:05.482Z,83.84
2018-12-30T14:04:35.115Z,83.89
2018-12-30T14:07:05.166Z,83.93
2018-12-30T14:09:34.813Z,83.96
2018-12-30T14:12:04.488Z,84.00
2018-12-30T14:14:34.494Z,84.06
2018-12-30T14:17:04.149Z,84.12
2018-12-30T14:19:52.784Z,84.12
2018-12-30T14:22:22.409Z,84.15
2018-12-30T14:24:55.519Z,84.18
2018-12-30T14:27:23.538Z,84.20
2018-12-30T14:29:53.194Z,84.34
2018-12-30T14:32:22.832Z,84.29
2018-12-30T14:34:52.536Z,84.35
2018-12-30T14:37:22.179Z,84.40
2018-12-30T14:39:51.804Z,84.43
2018-12-30T14:42:21.651Z,84.56
2018-12-30T14:44:51.274Z,84.66
2018-12-30T14:47:39.824Z,84.74
2018-12-30T14:50:11.841Z,84.83
2018-12-30T14:52:41.541Z,84.87
2018-12-30T14:55:11.418Z,84.98
2018-12-30T14:57:43.323Z,85.06
2018-12-30T15:00:12.959Z,85.11
2018-12-30T15:02:42.643Z,85.19
2018-12-30T15:08:21.355Z,85.31
2018-12-30T15:10:51.002Z,85.31
2018-12-30T15:13:20.696Z,85.34
2018-12-30T15:15:50.600Z,85.46
2018-12-30T15:18:22.762Z,85.55
2018-12-30T15:20:52.375Z,85.64
2018-12-30T15:23:22.137Z,85.71
2018-12-30T15:25:51.783Z,85.74
2018-12-30T15:28:21.538Z,85.80
2018-12-30T15:30:51.308Z,85.86
2018-12-30T15:33:21.022Z,85.91
2018-12-30T15:36:09.591Z,85.95
2018-12-30T15:38:39.254Z,86.00
2018-12-30T15:41:08.915Z,86.02
2018-12-30T15:43:38.692Z,86.05
2018-12-30T15:46:08.310Z,86.08
2018-12-30T15:48:37.946Z,86.11
2018-12-30T15:53:43.090Z,86.17
2018-12-30T15:56:12.750Z,86.14
2018-12-30T16:01:31.264Z,86.23
2018-12-30T16:04:01.141Z,86.21
2018-12-30T16:06:30.867Z,86.20
2018-12-30T16:09:00.760Z,86.25
2018-12-30T16:11:30.713Z,86.24
2018-12-30T16:14:19.457Z,86.19
2018-12-30T16:16:49.266Z,86.21
2018-12-30T16:19:19.111Z,86.20
2018-12-30T16:21:48.782Z,86.23
2018-12-30T16:24:18.420Z,86.21
2018-12-30T16:26:48.052Z,86.20
2018-12-30T16:29:36.811Z,86.23
2018-12-30T16:32:08.885Z,86.22
2018-12-30T16:34:38.539Z,86.20
2018-12-30T16:37:08.291Z,86.23
2018-12-30T16:39:37.964Z,86.25
2018-12-30T16:42:07.618Z,86.27
2018-12-30T16:44:56.212Z,86.29
2018-12-30T16:47:25.871Z,86.29
2018-12-30T16:49:55.740Z,86.26
2018-12-30T16:52:25.597Z,86.28
2018-12-30T16:54:55.408Z,86.32
2018-12-30T17:00:13.654Z,86.31
2018-12-30T17:02:43.294Z,86.27
2018-12-30T17:05:13.038Z,86.27
2018-12-30T17:07:42.748Z,86.27
2018-12-30T17:10:12.621Z,86.25
2018-12-30T17:12:42.257Z,86.24
2018-12-30T17:15:11.958Z,86.18
2018-12-30T17:17:41.818Z,86.17
2018-12-30T17:20:11.445Z,86.16
2018-12-30T17:22:41.121Z,86.11
2018-12-30T17:25:10.762Z,86.07
2018-12-30T17:30:28.943Z,86.04
2018-12-30T17:32:58.594Z,86.04
2018-12-30T17:35:28.339Z,86.00
2018-12-30T17:37:58.023Z,86.00
2018-12-30T17:40:27.693Z,85.98
2018-12-30T17:42:57.389Z,85.96
2018-12-30T17:45:27.177Z,85.92
2018-12-30T17:47:56.921Z,85.85
2018-12-30T17:50:26.630Z,85.84
2018-12-30T17:55:50.701Z,85.81
2018-12-30T17:58:16.314Z,85.75
2018-12-30T18:04:01.072Z,85.71
2018-12-30T18:06:30.710Z,85.65
2018-12-30T18:09:00.420Z,85.63
2018-12-30T18:11:30.261Z,85.60
2018-12-30T18:13:59.904Z,85.57
2018-12-30T18:16:29.523Z,85.54
2018-12-30T18:18:59.591Z,85.56
2018-12-30T18:21:29.211Z,85.52
2018-12-30T18:23:58.841Z,85.45
2018-12-30T18:26:28.598Z,85.43
2018-12-30T18:28:58.217Z,85.43
2018-12-30T18:31:27.977Z,85.42
2018-12-30T18:33:57.651Z,85.37
2018-12-30T18:39:15.821Z,85.27
2018-12-30T18:41:45.430Z,85.31
2018-12-30T18:44:15.049Z,85.26
2018-12-30T18:46:44.966Z,85.31
2018-12-30T18:49:14.785Z,85.31
2018-12-30T18:51:44.434Z,85.24
2018-12-30T18:54:14.259Z,85.21
2018-12-30T18:56:43.994Z,85.19
2018-12-30T18:59:13.754Z,85.19
2018-12-30T19:04:18.978Z,85.15
2018-12-30T19:06:48.732Z,85.13
2018-12-30T19:09:18.356Z,85.13
2018-12-30T19:11:48.298Z,85.05
2018-12-30T19:14:17.938Z,85.03
2018-12-30T19:16:47.566Z,85.04
2018-12-30T19:19:17.205Z,85.03
2018-12-30T19:21:46.889Z,85.00
2018-12-30T19:24:35.344Z,84.99
2018-12-30T19:27:05.154Z,84.94
2018-12-30T19:29:53.676Z,84.89
2018-12-30T19:34:59.761Z,84.84
2018-12-30T19:37:48.228Z,84.83
2018-12-30T19:40:17.911Z,84.80
2018-12-30T19:42:47.609Z,84.73
2018-12-30T19:48:09.958Z,84.67
2018-12-30T19:50:40.096Z,84.67
2018-12-30T19:53:09.736Z,84.65
2018-12-30T19:55:39.430Z,84.64
2018-12-30T19:58:09.157Z,84.64
2018-12-30T20:00:38.797Z,84.64
2018-12-30T20:03:47.640Z,84.60
2018-12-30T20:06:17.359Z,84.53
2018-12-30T20:08:46.981Z,84.46
2018-12-30T20:11:16.665Z,84.43
2018-12-30T20:16:34.992Z,84.38
2018-12-30T20:19:04.615Z,84.34
2018-12-30T20:21:34.303Z,84.29
2018-12-30T20:24:04.144Z,84.26
2018-12-30T20:26:33.772Z,84.22
2018-12-30T20:29:03.446Z,84.22
2018-12-30T20:31:33.089Z,84.17
2018-12-30T20:34:02.719Z,84.17
2018-12-30T20:39:20.978Z,84.10
2018-12-30T20:41:50.734Z,84.07
2018-12-30T20:44:20.422Z,84.03
2018-12-30T20:46:50.117Z,83.99
2018-12-30T20:49:19.762Z,84.00
2018-12-30T20:51:49.519Z,83.96
2018-12-30T20:54:19.202Z,83.93
2018-12-30T20:56:48.820Z,84.00
2018-12-30T20:59:18.786Z,84.02
2018-12-30T21:01:48.451Z,84.07
2018-12-30T21:04:18.131Z,84.06
2018-12-30T21:06:48.049Z,84.11
2018-12-30T21:12:15.763Z,84.18
2018-12-30T21:14:45.365Z,84.21
2018-12-30T21:17:15.199Z,84.25
2018-12-30T21:19:44.932Z,84.28
2018-12-30T21:22:14.558Z,84.27
2018-12-30T21:24:44.198Z,84.30
2018-12-30T21:27:13.861Z,84.31
2018-12-30T21:29:43.502Z,84.30
2018-12-30T21:32:13.145Z,84.32
2018-12-30T21:34:42.849Z,84.34
2018-12-30T21:37:31.424Z,84.35
2018-12-30T21:40:19.873Z,84.33
2018-12-30T21:42:49.523Z,84.33
2018-12-30T21:45:19.171Z,84.30
2018-12-30T21:47:48.852Z,84.27
2018-12-30T21:50:18.481Z,84.25
2018-12-30T21:52:48.193Z,84.26
2018-12-30T21:55:17.874Z,84.23
2018-12-30T21:57:47.511Z,84.16
2018-12-30T22:00:17.186Z,84.10
2018-12-30T22:02:46.863Z,84.09
2018-12-30T22:08:05.261Z,84.13
2018-12-30T22:10:34.895Z,84.08
2018-12-30T22:13:04.866Z,84.06
2018-12-30T22:15:34.528Z,84.01
2018-12-30T22:18:05.150Z,84.02
2018-12-30T22:20:34.778Z,84.07
2018-12-30T22:23:04.538Z,84.19
2018-12-30T22:25:34.247Z,84.22
2018-12-30T22:28:03.959Z,84.24
2018-12-30T22:30:33.751Z,84.29
2018-12-30T22:33:04.113Z,84.44
2018-12-30T22:35:33.702Z,84.54
2018-12-30T22:38:03.403Z,84.72
2018-12-30T22:40:33.058Z,84.62
2018-12-30T22:45:52.876Z,84.33
2018-12-30T22:48:22.521Z,84.18
2018-12-30T22:50:52.169Z,84.18
2018-12-30T22:53:21.879Z,84.30
2018-12-30T22:55:51.634Z,84.43
2018-12-30T22:58:21.239Z,84.35
2018-12-30T23:01:30.104Z,84.32
2018-12-30T23:03:59.843Z,84.32
2018-12-30T23:06:29.496Z,84.38
2018-12-30T23:08:59.398Z,84.47
2018-12-30T23:11:29.092Z,84.59
2018-12-30T23:13:58.775Z,84.67
2018-12-30T23:16:28.490Z,84.73
2018-12-30T23:18:58.709Z,84.85
2018-12-30T23:21:28.397Z,85.03
2018-12-30T23:23:58.172Z,85.13
2018-12-30T23:26:27.917Z,85.17
2018-12-30T23:28:57.538Z,85.25
2018-12-30T23:31:27.243Z,85.32
2018-12-30T23:33:56.861Z,85.33
2018-12-30T23:39:15.087Z,85.38
2018-12-30T23:41:44.721Z,85.38
2018-12-30T23:44:34.330Z,85.44
2018-12-30T23:47:03.969Z,85.53
2018-12-30T23:49:33.734Z,85.57
2018-12-30T23:52:03.423Z,85.56
2018-12-30T23:54:33.058Z,85.63
2018-12-30T23:57:02.761Z,85.75
2018-12-30T23:59:51.368Z,85.92
